Latest Weather Observations for Kadina

IDS60801

Issued at 11:02 pm CDT Monday 30 March 2015 (issued every 30 minutes, with the page automatically refreshed every 10 minutes)

About weather observations | Map of weather stations | Latest weather observations for SA | Other Formats
Station Details ID: 022050 Name: KADINA AWS Lat: -33.97 Lon: 137.66 Height: 41.14 m
Data from the previous 72 hours. | See also: Recent months at Kadina
Date/Time
CDT
Temp
°C
App
Temp
°C
Dew
Point
Rel
Hum
%
Delta-T
°C
Wind Press
QNH
hPa
Press
MSL
hPa
Rain
since 9 am
mm
Dir
 
Spd
km/h
Gust
km/h
Spd
kts
Gust
kts
30/11:00pm 16.5 14.4 13.6 83 1.6 ESE 17 19 9 10 1024.1 - 0.0
30/10:30pm 17.4 14.9 14.1 81 1.9 ESE 20 24 11 13 1024.2 - 0.0
30/10:00pm 15.3 12.5 9.9 70 2.8 ESE 15 17 8 9 1024.4 - 0.0
30/09:30pm 15.5 12.4 9.0 65 3.3 SE 15 17 8 9 1024.3 - 0.0
30/09:00pm 16.7 13.2 8.7 59 4.1 SE 17 19 9 10 1024.0 1023.7 0.0
30/08:30pm 18.5 15.1 9.0 54 5.0 SSE 17 19 9 10 1023.9 - 0.0
30/08:00pm 19.3 16.4 9.5 53 5.2 S 15 17 8 9 1023.6 - 0.0
30/07:30pm 20.0 17.4 9.3 50 5.7 SSW 13 15 7 8 1023.4 - 0.0
30/07:00pm 23.2 20.5 10.3 44 7.1 SW 15 19 8 10 1023.1 - 0.0
30/06:30pm 24.4 21.1 11.0 43 7.5 SW 19 24 10 13 1022.8 - 0.0
30/06:00pm 25.4 22.0 10.4 39 8.3 WSW 19 22 10 12 1022.8 1022.6 0.0
30/05:30pm 26.1 22.7 9.0 34 9.3 SW 17 24 9 13 1022.8 - 0.0
30/05:00pm 25.9 22.3 8.4 33 9.4 WSW 17 22 9 12 1022.6 - 0.0
30/04:30pm 25.9 22.6 9.7 36 8.9 WSW 17 22 9 12 1022.7 - 0.0
30/04:00pm 26.4 23.4 10.5 37 8.9 WSW 17 22 9 12 1022.7 - 0.0
30/03:30pm 26.3 23.2 11.6 40 8.4 W 19 26 10 14 1022.7 - 0.0
30/03:00pm 26.5 23.0 10.2 36 9.1 W 19 26 10 14 1023.0 1022.8 0.0
30/02:30pm 26.6 23.3 9.5 34 9.4 WNW 17 24 9 13 1023.1 - 0.0
30/02:00pm 25.5 22.1 10.5 39 8.4 WNW 19 24 10 13 1023.6 - 0.0
30/01:30pm 25.4 22.4 11.9 43 7.7 WNW 19 24 10 13 1023.9 - 0.0
30/01:00pm 25.1 21.9 12.0 44 7.5 WNW 20 28 11 15 1024.3 - 0.0
30/12:30pm 25.6 23.8 8.1 33 9.4 NE 7 15 4 8 1024.6 - 0.0
30/12:00pm 25.1 23.1 8.6 35 8.9 N 9 13 5 7 1024.8 1024.5 0.0
30/11:30am 25.0 24.1 10.5 40 8.0 SE 6 9 3 5 1025.1 - 0.0
30/11:00am 24.3 22.8 10.6 42 7.6 ENE 9 19 5 10 1025.4 - 0.0
30/10:30am 22.9 21.3 10.3 45 6.9 E 9 13 5 7 1025.5 - 0.0
30/10:00am 21.4 20.3 13.1 59 4.8 E 11 15 6 8 1025.5 - 0.0
30/09:30am 20.2 18.5 13.6 66 3.8 ESE 15 20 8 11 1025.3 - 0.0
30/09:00am 17.3 16.2 14.2 82 1.8 ESE 13 17 7 9 1025.1 1024.8 0.0
30/08:30am 14.5 13.1 13.5 94 0.6 ESE 13 15 7 8 1024.8 - 0.0
30/08:00am 11.6 9.5 11.0 96 0.3 SE 13 15 7 8 1024.4 - 0.0
30/07:30am 10.2 7.6 9.4 95 0.4 SE 13 15 7 8 1024.1 - 0.0
30/07:00am 9.9 6.8 9.0 94 0.4 ESE 15 15 8 8 1023.5 - 0.0
30/06:30am 10.3 7.7 9.4 94 0.4 SE 13 15 7 8 1023.3 - 0.0
30/06:00am 9.8 7.0 8.7 93 0.5 SE 13 15 7 8 1023.1 1022.9 0.0
30/05:30am 9.6 6.8 8.4 92 0.6 ESE 13 15 7 8 1023.0 - 0.0
30/05:00am 9.7 6.8 8.3 91 0.7 ESE 13 15 7 8 1022.8 - 0.0
30/04:30am 9.8 6.9 8.2 90 0.8 ESE 13 15 7 8 1022.7 - 0.0
30/04:00am 10.3 7.5 8.7 90 0.8 E 13 13 7 7 1022.8 - 0.0
30/03:30am 10.5 7.8 8.8 89 0.8 E 13 13 7 7 1023.0 - 0.0
30/03:00am 10.7 8.3 8.5 86 1.1 E 11 13 6 7 1023.1 1022.9 0.0
30/02:30am 11.1 8.0 8.7 85 1.2 ENE 15 17 8 9 1023.4 - 0.0
30/02:00am 12.0 9.4 9.2 83 1.4 ESE 13 15 7 8 1023.4 - 0.0
30/01:30am 14.0 12.0 10.0 77 2.1 SE 11 13 6 7 1023.6 - 0.0
30/01:00am 14.4 12.4 10.2 76 2.2 SSE 11 15 6 8 1023.9 - 0.0
30/12:30am 15.4 12.4 10.8 74 2.4 S 17 20 9 11 1023.9 - 0.0
30/12:00am 14.6 11.9 10.2 75 2.3 S 15 17 8 9 1024.0 1023.7 0.0
 
Date/Time
CDT
Temp
°C
App
Temp
°C
Dew
Point
Rel
Hum
%
Delta-T
°C
Wind Press
QNH
hPa
Press
MSL
hPa
Rain
since 9 am
mm
Dir
 
Spd
km/h
Gust
km/h
Spd
kts
Gust
kts
29/11:30pm 14.3 11.1 9.9 75 2.3 S 17 19 9 10 1024.0 - 0.0
29/11:00pm 15.4 13.0 10.2 71 2.7 SSE 13 15 7 8 1024.0 - 0.0
29/10:30pm 15.8 13.5 11.6 76 2.3 S 15 17 8 9 1024.0 - 0.0
29/10:00pm 16.5 14.3 12.1 75 2.4 S 15 17 8 9 1023.9 - 0.0
29/09:30pm 16.6 14.2 11.3 71 2.9 S 15 17 8 9 1023.6 - 0.0
29/09:00pm 17.1 14.3 10.0 63 3.7 S 15 17 8 9 1023.1 1022.9 0.0
29/08:30pm 19.1 16.7 9.9 55 4.9 S 13 17 7 9 1022.9 - 0.0
29/08:00pm 19.0 16.1 9.8 55 4.9 SSW 15 17 8 9 1022.7 - 0.0
29/07:30pm 20.7 18.6 9.9 50 5.8 WSW 11 15 6 8 1022.3 - 0.0
29/07:00pm 23.1 19.7 7.6 37 8.1 WSW 15 20 8 11 1022.1 - 0.0
29/06:30pm 24.2 20.8 7.8 35 8.7 SW 15 19 8 10 1021.9 - 0.0
29/06:00pm 24.3 21.0 6.6 32 9.1 WSW 13 19 7 10 1021.7 1021.5 0.0
29/05:30pm 24.7 21.9 6.9 32 9.3 SW 11 19 6 10 1021.5 - 0.0
29/05:00pm 24.9 22.5 7.1 32 9.3 SW 9 15 5 8 1021.5 - 0.0
29/04:30pm 24.9 22.0 6.6 31 9.5 SSW 11 15 6 8 1021.5 - 0.0
29/04:00pm 24.5 22.0 8.0 35 8.8 WSW 11 20 6 11 1021.7 - 0.0
29/03:30pm 23.7 20.0 10.0 42 7.5 WSW 20 26 11 14 1022.0 - 0.0
29/03:00pm 23.2 19.5 9.6 42 7.4 WSW 19 28 10 15 1022.0 1021.8 0.0
29/02:30pm 24.3 21.7 9.5 39 8.1 WSW 13 20 7 11 1022.0 - 0.0
29/02:00pm 24.1 21.2 8.1 36 8.5 W 13 19 7 10 1022.4 - 0.0
29/01:30pm 24.2 21.2 7.8 35 8.7 WSW 13 20 7 11 1022.6 - 0.0
29/01:00pm 23.2 20.5 10.3 44 7.1 NW 15 22 8 12 1022.8 - 0.0
29/12:30pm 22.9 19.4 10.3 45 6.9 WNW 19 22 10 12 1023.0 - 0.0
29/12:00pm 24.1 19.9 7.3 34 8.8 WNW 19 26 10 14 1023.2 1023.0 0.0
29/11:30am 23.0 19.7 6.3 34 8.5 NW 13 17 7 9 1023.2 - 0.0
29/11:00am 22.6 20.1 8.3 40 7.6 NW 11 17 6 9 1023.3 - 0.0
29/10:30am 21.9 20.5 9.4 45 6.7 WNW 7 13 4 7 1023.3 - 0.0
29/10:00am 20.7 20.4 11.6 56 5.1 WNW 4 7 2 4 1023.3 - 0.0
29/09:30am 20.8 19.1 8.4 45 6.5 ENE 7 9 4 5 1023.2 - 0.0
29/09:00am 17.1 14.9 6.0 48 5.4 E 7 7 4 4 1023.1 1022.9 0.0
29/08:30am 15.2 12.8 5.4 52 4.7 E 7 9 4 5 1022.6 - 0.0
29/08:00am 13.6 10.9 5.5 58 3.8 ESE 9 11 5 6 1022.4 - 0.0
29/07:30am 13.2 10.3 4.9 57 3.8 ESE 9 11 5 6 1022.0 - 0.0
29/07:00am 13.7 10.9 5.1 56 4.0 ESE 9 11 5 6 1021.8 - 0.0
29/06:30am 13.6 10.8 5.3 57 3.9 E 9 11 5 6 1021.5 - 0.0
29/06:00am 13.0 9.8 4.9 58 3.7 E 11 11 6 6 1021.2 1021.0 0.0
29/05:30am 12.3 9.8 5.0 61 3.4 ENE 7 7 4 4 1021.1 - 0.0
29/05:00am 12.0 9.5 4.7 61 3.3 WSW 7 11 4 6 1021.1 - 0.0
29/04:30am 10.4 7.0 3.9 64 2.9 ESE 11 13 6 7 1020.6 - 0.0
29/04:00am 10.7 7.7 4.0 63 3.0 E 9 9 5 5 1020.7 - 0.0
29/03:30am 10.1 6.6 3.4 63 2.9 ESE 11 11 6 6 1020.7 - 0.0
29/03:00am 11.1 7.8 4.3 63 3.0 ESE 11 13 6 7 1020.8 1020.6 0.0
29/02:30am 10.3 6.8 3.6 63 2.9 E 11 13 6 7 1021.1 - 0.0
29/02:00am 11.8 8.1 4.3 60 3.4 ESE 13 13 7 7 1021.4 - 0.0
29/01:30am 11.3 8.0 4.3 62 3.1 ESE 11 13 6 7 1021.5 - 0.0
29/01:00am 11.0 7.6 3.8 61 3.2 E 11 13 6 7 1021.6 - 0.0
29/12:30am 10.8 7.7 3.4 60 3.2 ENE 9 11 5 6 1021.6 - 0.0
29/12:00am 12.8 9.5 4.5 57 3.8 ENE 11 11 6 6 1021.8 1021.6 0.0
 
Date/Time
CDT
Temp
°C
App
Temp
°C
Dew
Point
Rel
Hum
%
Delta-T
°C
Wind Press
QNH
hPa
Press
MSL
hPa
Rain
since 9 am
mm
Dir
 
Spd
km/h
Gust
km/h
Spd
kts
Gust
kts
28/11:30pm 12.9 9.9 4.1 55 4.0 ESE 9 11 5 6 1021.6 - 0.0
28/11:00pm 13.4 10.1 4.6 55 4.1 E 11 13 6 7 1021.4 - 0.0
28/10:30pm 13.9 11.0 4.8 54 4.2 E 9 11 5 6 1021.7 - 0.0
28/10:00pm 14.9 12.0 4.9 51 4.7 E 9 11 5 6 1022.1 - 0.0
28/09:30pm 15.8 13.0 5.1 49 5.1 E 9 11 5 6 1022.1 - 0.0
28/09:00pm 16.8 15.8 5.4 47 5.5 CALM 0 0 0 0 1022.0 1021.8 0.0
28/08:30pm 17.8 16.4 5.7 45 5.9 N 2 6 1 3 1021.9 - 0.0
28/08:00pm 17.9 15.7 5.2 43 6.1 N 6 7 3 4 1021.5 - 0.0
28/07:30pm 19.0 16.7 5.8 42 6.5 N 7 7 4 4 1021.6 - 0.0
28/07:00pm 19.8 17.7 5.8 40 6.9 NNW 6 7 3 4 1021.4 - 0.0
28/06:30pm 20.4 17.8 6.0 39 7.2 NW 9 11 5 6 1021.1 - 0.0
28/06:00pm 20.9 17.9 6.1 38 7.4 NW 11 13 6 7 1020.9 1020.7 0.0
28/05:30pm 21.1 18.1 6.2 38 7.5 NNW 11 15 6 8 1020.8 - 0.0
28/05:00pm 21.3 18.3 6.0 37 7.7 NNW 11 17 6 9 1021.1 - 0.0
28/04:30pm 21.2 18.3 6.3 38 7.5 NNW 11 15 6 8 1021.1 - 0.0
28/04:00pm 20.9 17.8 7.2 41 7.0 NW 13 17 7 9 1021.6 - 0.0
28/03:30pm 21.0 18.0 7.6 42 6.9 NNW 13 24 7 13 1021.8 - 0.0
28/03:00pm 20.9 17.3 8.2 44 6.6 NNW 17 26 9 14 1022.0 1021.8 0.0
28/02:30pm 21.2 17.3 8.5 44 6.7 N 19 26 10 14 1022.4 - 0.0
28/02:00pm 20.8 16.4 8.8 46 6.3 NNW 22 30 12 16 1022.8 - 0.0
28/01:30pm 20.8 16.0 7.4 42 6.9 NNW 22 28 12 15 1023.4 - 0.0
28/01:00pm 21.5 17.1 7.3 40 7.3 NNW 20 28 11 15 1023.7 - 0.0
28/12:30pm 20.6 16.5 7.9 44 6.6 NNW 19 26 10 14 1024.3 - 0.0
28/12:00pm 19.9 14.9 6.6 42 6.7 N 22 28 12 15 1024.6 1024.3 0.0
28/11:30am 20.1 16.3 7.5 44 6.5 N 17 26 9 14 1024.7 - 0.0
28/11:00am 19.4 15.7 7.8 47 6.0 NNE 17 24 9 13 1024.9 - 0.0
28/10:30am 19.4 14.9 8.4 49 5.7 NNE 22 28 12 15 1025.0 - 0.0
28/10:00am 18.3 14.7 8.3 52 5.2 NE 17 22 9 12 1025.1 - 0.0
28/09:30am 15.1 11.9 8.6 65 3.3 ENE 15 20 8 11 1025.2 - 0.0
28/09:00am 12.9 10.3 9.4 79 1.8 E 13 17 7 9 1025.2 1024.9 0.0
28/08:30am 9.0 6.4 7.9 93 0.5 E 11 15 6 8 1025.1 - 0.0
28/08:00am 7.2 3.9 6.3 94 0.4 E 13 13 7 7 1025.0 - 0.0
28/07:30am 6.4 2.5 5.5 94 0.4 ESE 15 15 8 8 1024.8 - 0.0
28/07:00am 6.2 2.3 5.3 94 0.4 ESE 15 15 8 8 1024.8 - 0.0
28/06:30am 6.2 2.3 5.2 93 0.4 ESE 15 17 8 9 1024.7 - 0.0
28/06:00am 6.7 2.9 5.8 94 0.4 ESE 15 17 8 9 1024.8 1024.5 0.0
28/05:30am 7.2 3.5 6.3 94 0.4 ESE 15 17 8 9 1025.0 - 0.0
28/05:00am 7.4 3.7 6.5 94 0.4 SE 15 17 8 9 1025.2 - 0.0
28/04:30am 7.4 3.8 6.7 95 0.3 ESE 15 15 8 8 1025.1 - 0.0
28/04:00am 6.4 2.9 5.5 94 0.4 ESE 13 15 7 8 1025.1 - 0.0
28/03:30am 5.8 2.5 4.8 93 0.4 ESE 11 13 6 7 1025.4 - 0.0
28/03:00am 6.3 2.8 5.3 93 0.4 ESE 13 15 7 8 1025.4 1025.1 0.0
28/02:30am 6.4 2.9 5.4 93 0.4 SE 13 15 7 8 1025.7 - 0.0
28/02:00am 6.8 3.7 5.6 92 0.5 ESE 11 13 6 7 1026.4 - 0.0
28/01:30am 7.2 3.8 5.8 91 0.6 ESE 13 13 7 7 1026.3 - 0.0
28/01:00am 7.3 4.3 5.8 90 0.7 SE 11 13 6 7 1026.5 - 0.0
28/12:30am 7.8 4.9 6.3 90 0.7 ESE 11 13 6 7 1026.4 - 0.0
28/12:00am 8.3 5.7 6.3 87 0.9 ESE 9 11 5 6 1026.5 1026.2 0.0
 
Date/Time
CDT
Temp
°C
App
Temp
°C
Dew
Point
Rel
Hum
%
Delta-T
°C
Wind Press
QNH
hPa
Press
MSL
hPa
Rain
since 9 am
mm
Dir
 
Spd
km/h
Gust
km/h
Spd
kts
Gust
kts
27/11:30pm 10.4 7.9 8.3 87 1.0 SSE 11 13 6 7 1026.5 - 0.0

Other Formats:

Comma delimited format used in spreadsheet applications
http://www.bom.gov.au/fwo/IDS60801/IDS60801.94685.axf

JavaScript Object Notation format (JSON) in row-major order
http://www.bom.gov.au/fwo/IDS60801/IDS60801.94685.json